createdAt,value
2023-05-09T00:01:36.102Z,100.00
2023-05-09T00:04:06.818Z,100.00
2023-05-09T00:06:37.595Z,100.00
2023-05-09T00:09:08.527Z,100.00
2023-05-09T00:11:43.298Z,100.00
2023-05-09T00:14:20.904Z,100.00
2023-05-09T00:16:56.477Z,100.00
2023-05-09T00:19:34.289Z,100.00
2023-05-09T00:22:11.951Z,100.00
2023-05-09T00:24:43.973Z,100.00
2023-05-09T00:30:03.482Z,100.00
2023-05-09T00:32:44.414Z,100.00
2023-05-09T00:35:15.232Z,100.00
2023-05-09T00:37:46.993Z,100.00
2023-05-09T00:40:23.529Z,100.00
2023-05-09T00:42:59.879Z,100.00
2023-05-09T00:45:30.404Z,100.00
2023-05-09T00:48:03.477Z,100.00
2023-05-09T00:50:35.051Z,100.00
2023-05-09T00:55:50.776Z,100.00
2023-05-09T00:58:28.164Z,100.00
2023-05-09T01:01:05.267Z,100.00
2023-05-09T01:03:33.505Z,100.00
2023-05-09T01:06:35.712Z,100.00
2023-05-09T01:09:19.129Z,100.00
2023-05-09T01:12:24.305Z,100.00
2023-05-09T01:15:12.605Z,100.00
2023-05-09T01:18:05.776Z,100.00
2023-05-09T01:20:48.818Z,100.00
2023-05-09T01:24:06.053Z,100.00
2023-05-09T01:27:05.327Z,100.00
2023-05-09T01:30:02.272Z,100.00
2023-05-09T01:32:42.211Z,100.00
2023-05-09T01:35:19.154Z,100.00
2023-05-09T01:37:51.513Z,100.00
2023-05-09T01:40:24.939Z,100.00
2023-05-09T01:43:13.762Z,100.00
2023-05-09T01:45:45.814Z,100.00
2023-05-09T01:48:19.993Z,100.00
2023-05-09T01:50:54.828Z,100.00
2023-05-09T01:53:32.019Z,100.00
2023-05-09T01:56:13.385Z,100.00
2023-05-09T01:58:51.124Z,100.00
2023-05-09T02:01:28.567Z,100.00
2023-05-09T02:04:00.981Z,100.00
2023-05-09T02:06:31.212Z,100.00
2023-05-09T02:09:05.534Z,100.00
2023-05-09T02:11:36.246Z,100.00
2023-05-09T02:14:22.958Z,100.00
2023-05-09T02:16:55.238Z,100.00
2023-05-09T02:19:22.948Z,100.00
2023-05-09T02:21:54.079Z,100.00
2023-05-09T02:24:26.855Z,100.00
2023-05-09T02:27:20.591Z,100.00
2023-05-09T02:29:52.814Z,100.00
2023-05-09T02:32:37.371Z,100.00
2023-05-09T02:35:11.440Z,100.00
2023-05-09T02:37:43.131Z,100.00
2023-05-09T02:40:20.220Z,100.00
2023-05-09T02:42:51.706Z,100.00
2023-05-09T02:45:34.638Z,100.00
2023-05-09T02:48:12.355Z,100.00
2023-05-09T02:50:53.388Z,100.00
2023-05-09T02:53:27.216Z,100.00
2023-05-09T02:55:57.327Z,100.00
2023-05-09T02:58:31.096Z,100.00
2023-05-09T03:01:06.811Z,100.00
2023-05-09T03:03:40.568Z,100.00
2023-05-09T03:06:09.596Z,100.00
2023-05-09T03:08:46.900Z,100.00
2023-05-09T03:11:19.319Z,100.00
2023-05-09T03:13:51.887Z,100.00
2023-05-09T03:16:23.506Z,100.00
2023-05-09T03:18:54.616Z,100.00
2023-05-09T03:21:30.187Z,100.00
2023-05-09T03:24:01.338Z,100.00
2023-05-09T03:26:34.860Z,100.00
2023-05-09T03:29:11.432Z,100.00
2023-05-09T03:34:36.707Z,100.00
2023-05-09T03:37:07.519Z,100.00
2023-05-09T03:39:41.582Z,100.00
2023-05-09T03:42:24.497Z,100.00
2023-05-09T03:45:10.255Z,100.00
2023-05-09T03:47:55.594Z,100.00
2023-05-09T03:50:27.115Z,100.00
2023-05-09T03:53:00.952Z,100.00
2023-05-09T03:55:30.068Z,100.00
2023-05-09T03:58:05.095Z,100.00
2023-05-09T04:03:27.233Z,100.00
2023-05-09T04:06:02.711Z,100.00
2023-05-09T04:08:40.824Z,100.00
2023-05-09T04:11:15.209Z,100.00
2023-05-09T04:13:55.490Z,100.00
2023-05-09T04:16:53.294Z,100.00
2023-05-09T04:19:32.574Z,100.00
2023-05-09T04:22:03.444Z,100.00
2023-05-09T04:24:53.882Z,100.00
2023-05-09T04:27:32.378Z,100.00
2023-05-09T04:30:03.599Z,100.00
2023-05-09T04:32:41.452Z,100.00
2023-05-09T04:35:11.868Z,100.00
2023-05-09T04:37:49.266Z,100.00
2023-05-09T04:40:24.379Z,100.00
2023-05-09T04:43:04.281Z,100.00
2023-05-09T04:45:42.240Z,100.00
2023-05-09T04:48:13.138Z,100.00
2023-05-09T04:50:45.114Z,100.00
2023-05-09T04:53:16.287Z,100.00
2023-05-09T04:56:02.598Z,100.00
2023-05-09T04:58:44.408Z,100.00
2023-05-09T05:01:20.014Z,100.00
2023-05-09T05:03:50.680Z,100.00
2023-05-09T05:06:21.132Z,100.00
2023-05-09T05:08:54.578Z,100.00
2023-05-09T05:11:31.035Z,100.00
2023-05-09T05:14:03.698Z,100.00
2023-05-09T05:16:43.066Z,100.00
2023-05-09T05:19:14.203Z,100.00
2023-05-09T05:21:44.542Z,100.00
2023-05-09T05:24:22.048Z,100.00
2023-05-09T05:26:53.361Z,100.00
2023-05-09T05:29:25.502Z,100.00
2023-05-09T05:31:55.279Z,100.00
2023-05-09T05:34:42.119Z,100.00
2023-05-09T05:37:14.244Z,100.00
2023-05-09T05:39:53.999Z,100.00
2023-05-09T05:42:32.498Z,100.00
2023-05-09T05:45:06.856Z,100.00
2023-05-09T05:47:53.785Z,100.00
2023-05-09T05:50:25.175Z,100.00
2023-05-09T05:55:43.012Z,100.00
2023-05-09T05:58:20.323Z,100.00
2023-05-09T06:00:53.522Z,100.00
2023-05-09T06:03:27.345Z,100.00
2023-05-09T06:06:15.772Z,100.00
2023-05-09T06:08:47.065Z,100.00
2023-05-09T06:11:25.189Z,100.00
2023-05-09T06:13:58.401Z,100.00
2023-05-09T06:16:28.846Z,100.00
2023-05-09T06:18:57.862Z,100.00
2023-05-09T06:21:35.735Z,100.00
2023-05-09T06:24:14.422Z,100.00
2023-05-09T06:26:56.057Z,100.00
2023-05-09T06:29:36.492Z,100.00
2023-05-09T06:32:10.189Z,100.00
2023-05-09T06:34:41.982Z,100.00
2023-05-09T06:37:13.754Z,100.00
2023-05-09T06:39:43.817Z,100.00
2023-05-09T06:45:06.119Z,100.00
2023-05-09T06:47:37.263Z,100.00
2023-05-09T06:50:07.864Z,100.00
2023-05-09T06:52:36.242Z,100.00
2023-05-09T06:55:06.862Z,100.00
2023-05-09T06:57:44.467Z,100.00
2023-05-09T07:00:17.882Z,100.00
2023-05-09T07:02:47.955Z,100.00
2023-05-09T07:05:20.538Z,100.00
2023-05-09T07:07:48.902Z,100.00
2023-05-09T07:10:22.085Z,100.00
2023-05-09T07:12:55.896Z,100.00
2023-05-09T07:15:39.577Z,100.00
2023-05-09T07:18:13.516Z,100.00
2023-05-09T07:20:57.222Z,100.00
2023-05-09T07:23:30.937Z,100.00
2023-05-09T07:26:01.865Z,100.00
2023-05-09T07:28:33.308Z,100.00
2023-05-09T07:31:06.269Z,100.00
2023-05-09T07:33:37.869Z,100.00
2023-05-09T07:36:22.925Z,100.00
2023-05-09T07:38:56.708Z,100.00
2023-05-09T07:41:26.772Z,100.00
2023-05-09T07:44:01.000Z,100.00
2023-05-09T07:46:35.092Z,100.00
2023-05-09T07:49:09.096Z,100.00
2023-05-09T07:51:39.920Z,100.00
2023-05-09T07:54:16.345Z,100.00
2023-05-09T07:59:28.620Z,100.00
2023-05-09T08:02:08.240Z,100.00
2023-05-09T08:04:51.792Z,100.00
2023-05-09T08:07:29.879Z,100.00
2023-05-09T08:09:58.884Z,100.00
2023-05-09T08:12:32.577Z,100.00
2023-05-09T08:15:03.148Z,100.00
2023-05-09T08:17:42.865Z,100.00
2023-05-09T08:20:19.437Z,100.00
2023-05-09T08:22:53.229Z,100.00
2023-05-09T08:28:18.032Z,100.00
2023-05-09T08:30:51.518Z,100.00
2023-05-09T08:33:34.190Z,100.00
2023-05-09T08:36:19.339Z,100.00
2023-05-09T08:38:55.480Z,100.00
2023-05-09T08:41:34.154Z,100.00
2023-05-09T08:44:15.536Z,100.00
2023-05-09T08:46:51.431Z,100.00
2023-05-09T08:49:25.051Z,100.00
2023-05-09T08:52:10.670Z,100.00
2023-05-09T08:54:41.841Z,100.00
2023-05-09T08:57:19.171Z,100.00
2023-05-09T08:59:49.320Z,100.00
2023-05-09T09:02:19.947Z,100.00
2023-05-09T09:04:54.803Z,100.00
2023-05-09T09:07:26.664Z,100.00
2023-05-09T09:10:15.257Z,100.00
2023-05-09T09:12:50.026Z,100.00
2023-05-09T09:15:31.909Z,100.00
2023-05-09T09:18:10.741Z,100.00
2023-05-09T09:20:49.733Z,100.00
2023-05-09T09:23:22.057Z,100.00
2023-05-09T09:26:00.085Z,100.00
2023-05-09T09:28:31.156Z,100.00
2023-05-09T09:33:56.631Z,100.00
2023-05-09T09:36:41.947Z,100.00
2023-05-09T09:39:18.074Z,100.00
2023-05-09T09:41:48.944Z,100.00
2023-05-09T09:44:24.212Z,100.00
2023-05-09T09:46:57.053Z,100.00
2023-05-09T09:49:27.063Z,100.00
2023-05-09T09:52:04.859Z,100.00
2023-05-09T09:54:49.922Z,100.00
2023-05-09T09:57:40.987Z,100.00
2023-05-09T10:00:20.286Z,100.00
2023-05-09T10:03:06.280Z,100.00
2023-05-09T10:05:41.508Z,100.00
2023-05-09T10:08:12.636Z,100.00
2023-05-09T10:10:48.956Z,100.00
2023-05-09T10:13:20.874Z,100.00
2023-05-09T10:15:53.834Z,100.00
2023-05-09T10:18:32.912Z,100.00
2023-05-09T10:21:07.528Z,100.00
2023-05-09T10:23:40.917Z,100.00
2023-05-09T10:26:32.205Z,100.00
2023-05-09T10:29:07.190Z,100.00
2023-05-09T10:31:40.366Z,100.00
2023-05-09T10:34:15.194Z,100.00
2023-05-09T10:36:48.797Z,100.00
2023-05-09T10:39:19.857Z,100.00
2023-05-09T10:42:05.860Z,100.00
2023-05-09T10:44:36.972Z,100.00
2023-05-09T10:47:15.378Z,100.00
2023-05-09T10:49:50.413Z,100.00
2023-05-09T10:52:21.647Z,100.00
2023-05-09T10:55:09.179Z,100.00
2023-05-09T10:57:52.034Z,100.00
2023-05-09T11:00:29.573Z,100.00
2023-05-09T11:03:14.018Z,100.00
2023-05-09T11:05:54.825Z,100.00
2023-05-09T11:08:35.564Z,100.00
2023-05-09T11:11:29.219Z,100.00
2023-05-09T11:14:09.103Z,100.00
2023-05-09T11:17:04.391Z,100.00
2023-05-09T11:20:02.885Z,100.00
2023-05-09T11:22:33.122Z,100.00
2023-05-09T11:25:16.118Z,100.00
2023-05-09T11:27:51.210Z,100.00
2023-05-09T11:30:21.589Z,100.00
2023-05-09T11:33:00.934Z,100.00
2023-05-09T11:35:29.526Z,100.00
2023-05-09T11:38:12.695Z,100.00
2023-05-09T11:40:43.094Z,100.00
2023-05-09T11:43:13.840Z,100.00
2023-05-09T11:48:32.024Z,100.00
2023-05-09T11:51:08.836Z,100.00
2023-05-09T11:53:49.324Z,100.00
2023-05-09T11:56:23.204Z,100.00
2023-05-09T11:58:54.048Z,100.00
2023-05-09T12:01:34.280Z,100.00
2023-05-09T12:04:06.951Z,100.00
2023-05-09T12:06:42.859Z,100.00
2023-05-09T12:09:39.341Z,100.00
2023-05-09T12:12:14.921Z,100.00
2023-05-09T12:14:48.837Z,100.00
2023-05-09T12:17:19.337Z,100.00
2023-05-09T12:19:50.142Z,100.00
2023-05-09T12:22:23.915Z,100.00
2023-05-09T12:24:54.905Z,100.00
2023-05-09T12:27:30.826Z,100.00
2023-05-09T12:32:55.744Z,100.00
2023-05-09T12:35:26.341Z,100.00
2023-05-09T12:37:59.995Z,100.00
2023-05-09T12:40:30.569Z,100.00
2023-05-09T12:43:36.226Z,100.00
2023-05-09T12:46:17.258Z,100.00
2023-05-09T12:48:49.777Z,100.00
2023-05-09T12:51:23.760Z,100.00
2023-05-09T12:54:01.365Z,100.00
2023-05-09T12:56:35.722Z,100.00
2023-05-09T12:59:06.889Z,100.00
2023-05-09T13:01:47.274Z,100.00
2023-05-09T13:04:21.191Z,100.00
2023-05-09T13:06:56.656Z,100.00
2023-05-09T13:09:27.439Z,100.00
2023-05-09T13:11:58.371Z,100.00
2023-05-09T13:14:26.601Z,100.00
2023-05-09T13:16:57.200Z,100.00
2023-05-09T13:19:32.345Z,100.00
2023-05-09T13:22:05.427Z,100.00
2023-05-09T13:24:36.013Z,100.00
2023-05-09T13:27:06.755Z,100.00
2023-05-09T13:29:37.007Z,100.00
2023-05-09T13:32:18.327Z,100.00
2023-05-09T13:34:50.162Z,100.00
2023-05-09T13:40:09.256Z,100.00
2023-05-09T13:42:38.082Z,100.00
2023-05-09T13:45:17.286Z,100.00
2023-05-09T13:47:48.804Z,100.00
2023-05-09T13:50:20.201Z,97.37
2023-05-09T13:52:50.970Z,98.24
2023-05-09T13:55:23.245Z,83.18
2023-05-09T13:57:54.004Z,91.67
2023-05-09T14:00:28.778Z,53.28
2023-05-09T14:03:00.110Z,66.87
2023-05-09T14:05:34.602Z,78.76
2023-05-09T14:08:11.323Z,97.55
2023-05-09T14:10:44.988Z,65.00
2023-05-09T14:13:29.479Z,55.46
2023-05-09T14:16:08.198Z,47.97
2023-05-09T14:18:38.540Z,39.98
2023-05-09T14:21:13.574Z,38.94
2023-05-09T14:23:43.262Z,35.74
2023-05-09T14:26:26.039Z,34.95
2023-05-09T14:29:06.356Z,39.88
2023-05-09T14:31:40.904Z,34.52
2023-05-09T14:34:11.657Z,36.94
2023-05-09T14:36:39.806Z,34.04
2023-05-09T14:39:11.246Z,50.04
2023-05-09T14:41:42.025Z,58.06
2023-05-09T14:44:12.177Z,71.39
2023-05-09T14:46:46.059Z,81.29
2023-05-09T14:49:19.891Z,89.44
2023-05-09T14:51:59.986Z,80.29
2023-05-09T14:54:30.328Z,100.00
2023-05-09T14:57:00.677Z,73.83
2023-05-09T14:59:41.195Z,67.49
2023-05-09T15:02:23.782Z,72.00
2023-05-09T15:04:59.793Z,85.35
2023-05-09T15:07:51.161Z,82.04
2023-05-09T15:10:25.029Z,100.00
2023-05-09T15:13:07.249Z,79.52
2023-05-09T15:15:42.667Z,73.04
2023-05-09T15:18:25.825Z,80.04
2023-05-09T15:20:54.249Z,71.93
2023-05-09T15:23:24.929Z,95.42
2023-05-09T15:26:11.670Z,84.47
2023-05-09T15:28:48.422Z,100.00
2023-05-09T15:31:24.161Z,93.74
2023-05-09T15:33:55.608Z,100.00
2023-05-09T15:36:26.456Z,95.39
2023-05-09T15:39:03.499Z,100.00
2023-05-09T15:41:40.574Z,77.96
2023-05-09T15:44:14.275Z,75.27
2023-05-09T15:46:43.638Z,62.90
2023-05-09T15:49:14.714Z,51.94
2023-05-09T15:51:47.536Z,52.42
2023-05-09T15:54:21.546Z,69.18
2023-05-09T15:59:34.659Z,100.00
2023-05-09T16:02:06.223Z,100.00
2023-05-09T16:04:39.496Z,100.00
2023-05-09T16:07:10.468Z,100.00
2023-05-09T16:09:43.359Z,100.00
2023-05-09T16:12:18.145Z,100.00
2023-05-09T16:14:48.936Z,100.00
2023-05-09T16:20:06.733Z,100.00
2023-05-09T16:22:49.736Z,100.00
2023-05-09T16:25:18.402Z,100.00
2023-05-09T16:27:48.071Z,100.00
2023-05-09T16:33:03.825Z,100.00
2023-05-09T16:35:32.241Z,100.00
2023-05-09T16:38:00.907Z,100.00
2023-05-09T16:40:31.111Z,100.00
2023-05-09T16:43:02.628Z,100.00
2023-05-09T16:45:46.828Z,100.00
2023-05-09T16:48:25.192Z,100.00
2023-05-09T16:51:01.775Z,100.00
2023-05-09T16:53:40.338Z,100.00
2023-05-09T16:56:14.436Z,100.00
2023-05-09T16:58:44.893Z,100.00
2023-05-09T17:01:21.871Z,100.00
2023-05-09T17:04:04.208Z,100.00
2023-05-09T17:06:48.600Z,100.00
2023-05-09T17:09:19.422Z,100.00
2023-05-09T17:11:52.121Z,100.00
2023-05-09T17:14:23.842Z,100.00
2023-05-09T17:16:53.989Z,100.00
2023-05-09T17:19:23.824Z,100.00
2023-05-09T17:21:53.752Z,100.00
2023-05-09T17:24:31.348Z,100.00
2023-05-09T17:27:01.773Z,100.00
2023-05-09T17:29:33.842Z,100.00
2023-05-09T17:32:16.425Z,100.00
2023-05-09T17:34:45.378Z,100.00
2023-05-09T17:37:16.480Z,100.00
2023-05-09T17:39:49.976Z,100.00
2023-05-09T17:42:24.870Z,100.00
2023-05-09T17:45:08.772Z,100.00
2023-05-09T17:47:43.901Z,100.00
2023-05-09T17:50:14.833Z,100.00
2023-05-09T17:52:56.887Z,100.00
2023-05-09T17:55:31.290Z,100.00
2023-05-09T17:58:00.494Z,100.00
2023-05-09T18:00:36.241Z,100.00
2023-05-09T18:03:13.287Z,100.00
2023-05-09T18:05:50.046Z,100.00
2023-05-09T18:08:20.590Z,100.00
2023-05-09T18:10:51.362Z,100.00
2023-05-09T18:13:25.603Z,100.00
2023-05-09T18:15:55.111Z,100.00
2023-05-09T18:18:32.393Z,100.00
2023-05-09T18:21:16.184Z,100.00
2023-05-09T18:23:49.986Z,100.00
2023-05-09T18:26:23.559Z,100.00
2023-05-09T18:28:55.366Z,100.00
2023-05-09T18:31:25.904Z,100.00
2023-05-09T18:34:05.897Z,100.00
2023-05-09T18:36:36.677Z,100.00
2023-05-09T18:39:13.915Z,100.00
2023-05-09T18:41:45.332Z,100.00
2023-05-09T18:44:19.512Z,100.00
2023-05-09T18:46:53.769Z,100.00
2023-05-09T18:49:25.960Z,100.00
2023-05-09T18:52:16.711Z,100.00
2023-05-09T18:54:48.480Z,100.00
2023-05-09T18:57:24.572Z,100.00
2023-05-09T19:00:03.494Z,100.00
2023-05-09T19:02:31.280Z,100.00
2023-05-09T19:05:07.770Z,100.00
2023-05-09T19:07:38.977Z,100.00
2023-05-09T19:10:16.572Z,100.00
2023-05-09T19:12:57.565Z,100.00
2023-05-09T19:15:28.382Z,100.00
2023-05-09T19:20:46.002Z,100.00
2023-05-09T19:23:22.097Z,100.00
2023-05-09T19:25:56.339Z,100.00
2023-05-09T19:28:25.391Z,100.00
2023-05-09T19:31:01.105Z,100.00
2023-05-09T19:33:47.583Z,100.00
2023-05-09T19:36:20.100Z,100.00
2023-05-09T19:38:55.634Z,100.00
2023-05-09T19:41:24.555Z,100.00
2023-05-09T19:44:11.896Z,100.00
2023-05-09T19:46:45.635Z,100.00
2023-05-09T19:49:18.021Z,100.00
2023-05-09T19:51:56.820Z,100.00
2023-05-09T19:54:31.157Z,100.00
2023-05-09T19:57:09.913Z,100.00
2023-05-09T19:59:46.389Z,100.00
2023-05-09T20:02:17.749Z,100.00
2023-05-09T20:05:01.407Z,100.00
2023-05-09T20:07:31.473Z,100.00
2023-05-09T20:10:14.935Z,100.00
2023-05-09T20:12:52.727Z,100.00
2023-05-09T20:15:37.142Z,100.00
2023-05-09T20:18:12.465Z,100.00
2023-05-09T20:20:43.266Z,100.00
2023-05-09T20:23:15.518Z,100.00
2023-05-09T20:25:44.420Z,100.00
2023-05-09T20:28:16.376Z,100.00
2023-05-09T20:30:48.870Z,100.00
2023-05-09T20:33:20.518Z,100.00
2023-05-09T20:35:57.123Z,100.00
2023-05-09T20:38:34.650Z,100.00
2023-05-09T20:41:08.162Z,100.00
2023-05-09T20:43:44.050Z,100.00
2023-05-09T20:46:14.686Z,100.00
2023-05-09T20:48:42.713Z,100.00
2023-05-09T20:51:16.630Z,100.00
2023-05-09T20:53:50.747Z,100.00
2023-05-09T20:56:28.238Z,100.00
2023-05-09T20:59:03.178Z,100.00
2023-05-09T21:01:45.470Z,100.00
2023-05-09T21:07:10.117Z,100.00
2023-05-09T21:09:47.301Z,100.00
2023-05-09T21:12:21.688Z,100.00
2023-05-09T21:14:51.665Z,100.00
2023-05-09T21:17:27.891Z,100.00
2023-05-09T21:19:58.572Z,100.00
2023-05-09T21:22:42.201Z,100.00
2023-05-09T21:25:16.146Z,100.00
2023-05-09T21:27:55.789Z,100.00
2023-05-09T21:30:33.326Z,100.00
2023-05-09T21:33:03.920Z,100.00
2023-05-09T21:35:46.947Z,100.00
2023-05-09T21:38:31.725Z,100.00
2023-05-09T21:41:05.767Z,100.00
2023-05-09T21:43:37.765Z,100.00
2023-05-09T21:46:12.177Z,100.00
2023-05-09T21:48:42.906Z,100.00
2023-05-09T21:51:15.670Z,100.00
2023-05-09T21:53:46.954Z,100.00
2023-05-09T21:56:18.197Z,100.00
2023-05-09T21:58:53.986Z,100.00
2023-05-09T22:01:30.331Z,100.00
2023-05-09T22:04:03.368Z,100.00
2023-05-09T22:06:37.443Z,100.00
2023-05-09T22:09:09.494Z,100.00
2023-05-09T22:11:43.496Z,100.00
2023-05-09T22:14:13.839Z,100.00
2023-05-09T22:16:57.627Z,100.00
2023-05-09T22:19:27.347Z,100.00
2023-05-09T22:21:56.276Z,100.00
2023-05-09T22:24:31.350Z,100.00
2023-05-09T22:27:11.593Z,100.00
2023-05-09T22:29:45.423Z,100.00
2023-05-09T22:32:20.169Z,100.00
2023-05-09T22:34:53.392Z,100.00
2023-05-09T22:37:26.581Z,100.00
2023-05-09T22:40:06.326Z,100.00
2023-05-09T22:42:37.486Z,100.00
2023-05-09T22:45:09.819Z,100.00
2023-05-09T22:47:40.509Z,100.00
2023-05-09T22:50:15.072Z,100.00
2023-05-09T22:52:50.913Z,100.00
2023-05-09T22:55:24.698Z,100.00
2023-05-09T22:57:58.154Z,100.00
2023-05-09T23:00:33.855Z,100.00
2023-05-09T23:03:14.465Z,100.00
2023-05-09T23:05:48.943Z,100.00
2023-05-09T23:08:17.263Z,100.00
2023-05-09T23:10:51.905Z,100.00
2023-05-09T23:13:32.662Z,100.00
2023-05-09T23:16:06.714Z,100.00
2023-05-09T23:18:52.757Z,100.00
2023-05-09T23:21:23.672Z,100.00
2023-05-09T23:23:54.824Z,100.00
2023-05-09T23:26:25.443Z,100.00
2023-05-09T23:31:51.151Z,100.00
2023-05-09T23:34:38.792Z,100.00
2023-05-09T23:37:20.696Z,100.00
2023-05-09T23:42:33.435Z,100.00
2023-05-09T23:45:05.804Z,100.00
2023-05-09T23:47:40.486Z,100.00
2023-05-09T23:50:14.615Z,100.00
2023-05-09T23:52:49.868Z,100.00
2023-05-09T23:55:20.952Z,100.00
2023-05-09T23:57:57.904Z,100.00
